createdAt,value
2022-10-20T00:04:13.049Z,7.70
2022-10-20T00:09:14.918Z,8.87
2022-10-20T00:14:16.655Z,8.40
2022-10-20T00:19:18.647Z,7.90
2022-10-20T00:24:21.659Z,6.77
2022-10-20T00:29:23.539Z,7.28
2022-10-20T00:34:25.347Z,7.30
2022-10-20T00:39:27.121Z,7.50
2022-10-20T00:44:58.381Z,7.78
2022-10-20T00:50:08.809Z,6.82
2022-10-20T00:55:14.066Z,6.30
2022-10-20T01:00:17.024Z,6.97
2022-10-20T01:05:19.639Z,6.40
2022-10-20T01:10:26.014Z,6.78
2022-10-20T01:15:45.929Z,6.43
2022-10-20T01:21:05.113Z,7.30
2022-10-20T01:26:07.947Z,6.50
2022-10-20T01:31:26.605Z,6.55
2022-10-20T01:36:37.386Z,6.35
2022-10-20T01:41:49.508Z,6.80
2022-10-20T01:46:52.953Z,6.23
2022-10-20T01:51:56.257Z,6.13
2022-10-20T01:57:11.247Z,6.60
2022-10-20T02:02:22.233Z,6.00
2022-10-20T02:07:29.400Z,5.80
2022-10-20T02:12:36.444Z,5.93
2022-10-20T02:17:40.681Z,5.97
2022-10-20T02:22:43.382Z,6.70
2022-10-20T02:27:47.971Z,6.97
2022-10-20T02:32:52.849Z,6.40
2022-10-20T02:37:54.703Z,6.53
2022-10-20T02:42:56.639Z,6.37
2022-10-20T02:47:58.687Z,7.13
2022-10-20T02:53:00.485Z,6.37
2022-10-20T02:58:02.297Z,6.93
2022-10-20T03:03:04.313Z,6.00
2022-10-20T03:08:06.068Z,6.27
2022-10-20T03:13:07.900Z,7.23
2022-10-20T03:18:09.682Z,7.50
2022-10-20T03:23:12.521Z,6.97
2022-10-20T03:28:15.883Z,8.03
2022-10-20T03:33:17.654Z,6.97
2022-10-20T03:38:19.419Z,6.83
2022-10-20T03:43:21.371Z,6.50
2022-10-20T03:48:23.279Z,6.67
2022-10-20T03:53:25.109Z,6.57
2022-10-20T03:58:26.952Z,7.27
2022-10-20T04:03:28.703Z,7.30
2022-10-20T04:08:30.475Z,7.77
2022-10-20T04:13:32.497Z,7.80
2022-10-20T04:18:34.283Z,8.50
2022-10-20T04:23:36.096Z,7.87
2022-10-20T04:28:38.010Z,8.20
2022-10-20T04:33:39.782Z,7.90
2022-10-20T04:38:41.588Z,8.47
2022-10-20T04:43:43.340Z,8.20
2022-10-20T04:48:45.865Z,8.80
2022-10-20T04:53:48.382Z,7.83
2022-10-20T04:58:55.925Z,8.43
2022-10-20T05:03:57.886Z,8.60
2022-10-20T05:09:06.545Z,8.07
2022-10-20T05:14:08.568Z,8.97
2022-10-20T05:19:11.485Z,8.43
2022-10-20T05:24:20.897Z,8.60
2022-10-20T05:29:24.442Z,8.60
2022-10-20T05:34:26.241Z,8.53
2022-10-20T05:39:28.050Z,9.23
2022-10-20T05:44:29.947Z,8.83
2022-10-20T05:49:31.725Z,9.13
2022-10-20T05:54:33.575Z,8.87
2022-10-20T05:59:35.379Z,8.77
2022-10-20T06:04:37.239Z,8.97
2022-10-20T06:09:39.876Z,9.87
2022-10-20T06:14:41.644Z,9.30
2022-10-20T06:19:43.355Z,9.43
2022-10-20T06:24:45.262Z,9.40
2022-10-20T06:29:47.033Z,9.97
2022-10-20T06:34:48.799Z,9.83
2022-10-20T06:39:50.553Z,9.30
2022-10-20T06:44:52.298Z,10.50
2022-10-20T06:49:54.055Z,11.13
2022-10-20T06:54:55.834Z,11.25
2022-10-20T06:59:57.602Z,10.37
2022-10-20T07:04:59.415Z,10.98
2022-10-20T07:10:01.194Z,11.52
2022-10-20T07:15:03.175Z,11.95
2022-10-20T07:20:05.471Z,11.88
2022-10-20T07:25:08.004Z,11.95
2022-10-20T07:30:10.183Z,12.55
2022-10-20T07:35:11.958Z,11.88
2022-10-20T07:40:13.907Z,12.25
2022-10-20T07:45:15.841Z,11.32
2022-10-20T07:50:18.031Z,9.98
2022-10-20T07:55:37.590Z,11.15
2022-10-20T08:05:42.429Z,8.73
2022-10-20T08:10:44.255Z,8.10
2022-10-20T08:15:54.067Z,7.13
2022-10-20T08:21:16.415Z,7.47
2022-10-20T08:26:23.795Z,6.65
2022-10-20T08:31:25.649Z,6.85
2022-10-20T08:36:30.261Z,6.75
2022-10-20T08:41:55.293Z,7.97
2022-10-20T08:47:01.404Z,7.40
2022-10-20T08:52:03.359Z,7.68
2022-10-20T08:57:21.410Z,8.30
2022-10-20T09:02:23.519Z,9.85
2022-10-20T09:07:28.273Z,10.25
2022-10-20T09:12:32.378Z,10.15
2022-10-20T09:17:35.155Z,10.80
2022-10-20T09:22:37.153Z,10.32
2022-10-20T09:27:43.004Z,10.70
2022-10-20T09:32:46.979Z,10.82
2022-10-20T09:38:03.685Z,11.13
2022-10-20T09:43:15.484Z,11.18
2022-10-20T09:48:24.172Z,11.23
2022-10-20T09:53:35.666Z,11.25
2022-10-20T09:58:39.478Z,11.10
2022-10-20T10:03:45.446Z,11.45
2022-10-20T10:08:48.028Z,11.00
2022-10-20T10:13:52.348Z,11.43
2022-10-20T10:19:02.014Z,11.85
2022-10-20T10:24:04.886Z,11.77
2022-10-20T10:29:17.900Z,11.93
2022-10-20T10:34:19.674Z,12.05
2022-10-20T10:39:21.494Z,12.15
2022-10-20T10:44:58.065Z,11.95
2022-10-20T10:50:21.073Z,11.57
2022-10-20T10:55:50.795Z,11.90
2022-10-20T11:00:52.593Z,11.10
2022-10-20T11:06:29.464Z,10.63
2022-10-20T11:11:44.382Z,10.40
2022-10-20T11:17:03.365Z,10.90
2022-10-20T11:22:26.831Z,11.55
2022-10-20T11:27:34.065Z,11.30
2022-10-20T11:32:42.111Z,11.15
2022-10-20T11:38:25.698Z,11.38
2022-10-20T11:43:37.229Z,11.07
2022-10-20T11:48:49.602Z,11.88
2022-10-20T11:54:26.813Z,11.40
2022-10-20T11:59:48.190Z,11.18
2022-10-20T12:04:49.957Z,11.15
2022-10-20T12:10:42.844Z,11.13
2022-10-20T12:15:50.140Z,10.70
2022-10-20T12:20:56.424Z,11.88
2022-10-20T12:25:58.222Z,11.57
2022-10-20T12:31:02.678Z,11.45
2022-10-20T12:36:16.470Z,11.70
2022-10-20T12:41:30.469Z,11.45
2022-10-20T12:46:34.154Z,11.35
2022-10-20T12:51:41.262Z,12.48
2022-10-20T12:56:43.769Z,12.38
2022-10-20T13:02:11.074Z,12.30
2022-10-20T13:07:12.858Z,11.75
2022-10-20T13:12:26.993Z,12.25
2022-10-20T13:18:06.131Z,12.40
2022-10-20T13:23:23.204Z,13.95
2022-10-20T13:28:30.926Z,13.40
2022-10-20T13:34:14.113Z,13.55
2022-10-20T13:39:24.965Z,13.55
2022-10-20T13:44:45.653Z,13.90
2022-10-20T13:50:10.315Z,13.63
2022-10-20T13:55:20.285Z,13.63
2022-10-20T14:00:28.511Z,14.00
2022-10-20T14:05:37.881Z,14.48
2022-10-20T14:10:48.233Z,14.38
2022-10-20T14:15:59.178Z,14.77
2022-10-20T14:21:15.697Z,14.80
2022-10-20T14:26:20.287Z,13.57
2022-10-20T14:31:24.250Z,14.25
2022-10-20T14:36:28.984Z,14.07
2022-10-20T14:41:33.585Z,14.65
2022-10-20T14:46:39.330Z,14.50
2022-10-20T14:51:47.726Z,14.88
2022-10-20T14:56:59.467Z,15.13
2022-10-20T15:02:10.373Z,15.50
2022-10-20T15:07:28.130Z,15.23
2022-10-20T15:12:36.167Z,15.38
2022-10-20T15:17:39.725Z,14.65
2022-10-20T15:22:42.610Z,15.43
2022-10-20T15:27:44.520Z,16.10
2022-10-20T15:32:46.579Z,15.38
2022-10-20T15:37:53.114Z,15.80
2022-10-20T15:42:55.044Z,14.82
2022-10-20T15:47:56.824Z,16.25
2022-10-20T15:52:58.593Z,16.40
2022-10-20T15:58:00.804Z,16.95
2022-10-20T16:03:02.776Z,17.30
2022-10-20T16:08:04.887Z,16.83
2022-10-20T16:13:06.744Z,15.75
2022-10-20T16:18:09.865Z,17.17
2022-10-20T16:23:11.968Z,16.85
2022-10-20T16:28:13.749Z,16.42
2022-10-20T16:33:15.590Z,17.23
2022-10-20T16:38:17.358Z,16.77
2022-10-20T16:43:19.162Z,16.45
2022-10-20T16:48:21.740Z,17.27
2022-10-20T16:53:24.144Z,16.35
2022-10-20T16:58:26.090Z,16.88
2022-10-20T17:03:28.085Z,17.88
2022-10-20T17:08:32.093Z,17.73
2022-10-20T17:13:34.607Z,15.68
2022-10-20T17:18:36.860Z,15.60
2022-10-20T17:23:42.685Z,15.43
2022-10-20T17:28:45.244Z,15.75
2022-10-20T17:33:47.351Z,17.83
2022-10-20T17:38:53.684Z,17.20
2022-10-20T17:43:55.458Z,17.88
2022-10-20T17:48:57.320Z,16.73
2022-10-20T17:53:59.113Z,15.65
2022-10-20T17:59:04.757Z,15.15
2022-10-20T18:04:12.950Z,14.90
2022-10-20T18:09:18.001Z,14.48
2022-10-20T18:14:19.990Z,14.80
2022-10-20T18:19:21.888Z,14.40
2022-10-20T18:24:23.837Z,14.15
2022-10-20T18:29:26.110Z,14.80
2022-10-20T18:34:27.909Z,13.30
2022-10-20T18:39:31.818Z,12.68
2022-10-20T18:44:33.865Z,11.88
2022-10-20T18:49:35.676Z,12.88
2022-10-20T18:54:38.314Z,12.52
2022-10-20T18:59:40.104Z,11.73
2022-10-20T19:04:41.893Z,14.07
2022-10-20T19:09:43.632Z,15.18
2022-10-20T19:14:45.453Z,15.38
2022-10-20T19:19:47.201Z,14.77
2022-10-20T19:24:48.941Z,16.25
2022-10-20T19:29:50.737Z,15.23
2022-10-20T19:34:52.502Z,14.45
2022-10-20T19:39:54.231Z,13.88
2022-10-20T19:44:55.992Z,15.13
2022-10-20T19:49:57.822Z,13.38
2022-10-20T19:55:01.313Z,11.80
2022-10-20T20:00:04.420Z,11.82
2022-10-20T20:05:06.474Z,11.18
2022-10-20T20:10:10.184Z,10.63
2022-10-20T20:15:11.957Z,12.57
2022-10-20T20:20:13.744Z,11.90
2022-10-20T20:25:15.725Z,11.20
2022-10-20T20:30:17.463Z,13.00
2022-10-20T20:35:19.202Z,12.55
2022-10-20T20:40:21.278Z,20.98
2022-10-20T20:45:23.063Z,24.60
2022-10-20T20:50:24.798Z,12.98
2022-10-20T20:55:26.534Z,11.68
2022-10-20T21:00:28.479Z,11.55
2022-10-20T21:05:30.296Z,11.82
2022-10-20T21:10:32.362Z,10.90
2022-10-20T21:15:34.212Z,11.27
2022-10-20T21:20:35.957Z,10.73
2022-10-20T21:25:37.718Z,11.25
2022-10-20T21:30:40.369Z,11.20
2022-10-20T21:35:42.158Z,10.45
2022-10-20T21:40:43.936Z,11.07
2022-10-20T21:45:45.702Z,10.32
2022-10-20T21:50:47.550Z,9.13
2022-10-20T21:55:49.303Z,9.70
2022-10-20T22:00:54.036Z,9.48
2022-10-20T22:05:55.865Z,10.38
2022-10-20T22:11:02.428Z,11.13
2022-10-20T22:16:13.740Z,10.23
2022-10-20T22:21:17.811Z,9.98
2022-10-20T22:26:19.602Z,10.13
2022-10-20T22:31:23.089Z,11.30
2022-10-20T22:36:26.205Z,10.27
2022-10-20T22:41:27.992Z,9.35
2022-10-20T22:46:29.814Z,9.32
2022-10-20T22:51:31.600Z,9.75
2022-10-20T22:56:33.454Z,10.45
2022-10-20T23:01:35.293Z,10.18
2022-10-20T23:06:37.198Z,10.73
2022-10-20T23:11:38.958Z,10.32
2022-10-20T23:16:40.706Z,10.10
2022-10-20T23:21:42.545Z,10.27
2022-10-20T23:26:44.376Z,9.25
2022-10-20T23:31:46.142Z,11.18
2022-10-20T23:36:47.998Z,10.38
2022-10-20T23:41:49.776Z,9.80
2022-10-20T23:46:52.091Z,9.13
2022-10-20T23:51:53.906Z,9.27
2022-10-20T23:56:55.718Z,10.75
